createdAt,value
2022-12-31T05:03:03.089Z,98746.06
2022-12-31T05:07:05.665Z,98755.22
2022-12-31T05:11:08.297Z,98748.56
2022-12-31T05:15:12.440Z,98740.09
2022-12-31T05:19:16.429Z,98743.69
2022-12-31T05:23:19.389Z,98753.22
2022-12-31T05:27:21.967Z,98743.31
2022-12-31T05:31:24.503Z,98743.22
2022-12-31T05:35:28.447Z,98759.06
2022-12-31T05:39:30.948Z,98768.50
2022-12-31T05:43:33.640Z,98772.25
2022-12-31T05:47:36.176Z,98785.34
2022-12-31T05:51:40.637Z,98791.13
2022-12-31T05:55:43.172Z,98804.38
2022-12-31T05:59:45.714Z,98806.97
2022-12-31T06:03:48.418Z,98797.53
2022-12-31T06:07:52.275Z,98801.00
2022-12-31T06:11:54.764Z,98799.06
2022-12-31T06:15:57.315Z,98781.28
2022-12-31T06:20:01.265Z,98798.31
2022-12-31T06:24:05.924Z,98801.53
2022-12-31T06:28:08.438Z,98816.53
2022-12-31T06:32:11.189Z,98815.47
2022-12-31T06:36:16.104Z,98808.50
2022-12-31T06:40:20.961Z,98816.06
2022-12-31T06:44:23.665Z,98816.41
2022-12-31T06:48:26.196Z,98822.47
2022-12-31T06:52:28.697Z,98819.97
2022-12-31T06:56:35.072Z,98828.78
2022-12-31T07:00:38.114Z,98827.81
2022-12-31T07:05:02.279Z,98827.00
2022-12-31T07:09:09.843Z,98837.63
2022-12-31T07:13:30.077Z,98836.91
2022-12-31T07:17:41.651Z,98842.34
2022-12-31T07:21:44.777Z,98836.72
2022-12-31T07:25:59.829Z,98839.34
2022-12-31T07:30:07.511Z,98834.38
2022-12-31T07:34:20.156Z,98852.69
2022-12-31T07:38:31.044Z,98849.50
2022-12-31T07:42:44.141Z,98870.00
2022-12-31T07:46:56.518Z,98856.28
2022-12-31T07:50:59.636Z,98877.94
2022-12-31T07:55:02.169Z,98884.22
2022-12-31T07:59:17.393Z,98907.06
2022-12-31T08:03:42.415Z,98918.50
2022-12-31T08:07:53.841Z,98919.03
2022-12-31T08:11:58.999Z,98926.81
2022-12-31T08:16:03.351Z,98915.63
2022-12-31T08:20:08.595Z,98936.78
2022-12-31T08:24:22.268Z,98927.44
2022-12-31T08:28:34.479Z,98922.94
2022-12-31T08:32:44.249Z,98922.09
2022-12-31T08:36:53.747Z,98932.50
2022-12-31T08:41:02.264Z,98939.19
2022-12-31T08:45:15.059Z,98932.88
2022-12-31T08:49:18.090Z,98922.00
2022-12-31T08:53:22.708Z,98932.50
2022-12-31T08:57:34.348Z,98943.94
2022-12-31T09:01:48.845Z,98940.78
2022-12-31T09:05:58.756Z,98951.22
2022-12-31T09:10:15.369Z,98952.19
2022-12-31T09:14:31.621Z,98956.00
2022-12-31T09:18:39.271Z,98947.94
2022-12-31T09:22:42.048Z,98952.50
2022-12-31T09:26:58.185Z,98966.97
2022-12-31T09:31:06.904Z,98957.09
2022-12-31T09:35:19.139Z,98953.34
2022-12-31T09:39:32.463Z,98969.81
2022-12-31T09:44:36.016Z,98982.03
2022-12-31T09:49:01.499Z,98987.75
2022-12-31T09:53:22.990Z,98984.22
2022-12-31T09:57:39.119Z,98993.22
2022-12-31T10:01:51.470Z,98990.84
2022-12-31T10:06:07.428Z,98987.28
2022-12-31T10:10:17.326Z,98968.81
2022-12-31T10:14:35.569Z,98977.34
2022-12-31T10:19:01.576Z,98981.97
2022-12-31T10:23:27.359Z,98984.97
2022-12-31T10:27:46.670Z,98985.19
2022-12-31T10:31:57.877Z,98994.69
2022-12-31T10:36:09.199Z,98989.06
2022-12-31T10:40:25.826Z,98982.53
2022-12-31T10:45:21.715Z,98988.28
2022-12-31T10:49:56.776Z,98975.22
2022-12-31T10:54:42.996Z,99016.13
2022-12-31T10:59:18.059Z,99029.34
2022-12-31T11:03:55.005Z,99038.41
2022-12-31T11:08:10.417Z,99027.97
2022-12-31T11:12:32.893Z,99018.47
2022-12-31T11:16:51.818Z,99014.19
2022-12-31T11:21:09.152Z,99013.41
2022-12-31T11:25:28.487Z,99017.22
2022-12-31T11:29:44.354Z,99025.25
2022-12-31T11:34:04.456Z,99023.22
2022-12-31T11:38:22.114Z,99019.41
2022-12-31T11:42:35.436Z,99017.00
2022-12-31T11:46:50.339Z,99002.88
2022-12-31T11:51:07.436Z,99027.16
2022-12-31T11:55:24.450Z,99020.09
2022-12-31T11:59:27.125Z,99020.09
2022-12-31T12:03:30.321Z,99023.13
2022-12-31T12:07:35.283Z,99037.63
2022-12-31T12:11:39.914Z,99035.16
2022-12-31T12:15:46.085Z,99027.25
2022-12-31T12:19:55.222Z,99034.31
2022-12-31T12:24:01.741Z,99026.19
2022-12-31T12:28:18.321Z,99034.88
2022-12-31T12:32:23.186Z,99027.25
2022-12-31T12:36:25.690Z,99019.41
2022-12-31T12:40:33.720Z,99032.56
2022-12-31T12:44:37.533Z,99033.13
2022-12-31T12:48:42.810Z,99035.09
2022-12-31T12:53:05.741Z,99027.75
2022-12-31T12:57:37.920Z,99040.28
2022-12-31T13:01:47.397Z,99028.78
2022-12-31T13:06:05.605Z,99040.81
2022-12-31T13:10:23.270Z,99053.09
2022-12-31T13:14:37.335Z,99050.94
2022-12-31T13:18:50.867Z,99044.63
2022-12-31T13:22:59.426Z,99051.72
2022-12-31T13:28:44.649Z,99067.81
2022-12-31T13:32:52.738Z,99060.16
2022-12-31T13:36:59.927Z,99080.41
2022-12-31T13:41:09.908Z,99086.66
2022-12-31T13:45:21.719Z,99075.72
2022-12-31T13:49:27.902Z,99077.59
2022-12-31T13:53:35.831Z,99065.03
2022-12-31T13:57:43.692Z,99061.78
2022-12-31T14:01:53.295Z,99047.34
2022-12-31T14:05:59.804Z,99050.63
2022-12-31T14:10:02.318Z,99069.41
2022-12-31T14:14:12.949Z,99068.03
2022-12-31T14:18:24.442Z,99070.50
2022-12-31T14:22:35.706Z,99067.44
2022-12-31T14:26:41.801Z,99061.50
2022-12-31T14:30:48.085Z,99071.00
2022-12-31T14:35:00.575Z,99076.44
2022-12-31T14:39:18.166Z,99072.34
2022-12-31T14:43:29.293Z,99088.88
2022-12-31T14:47:45.476Z,99085.03
2022-12-31T14:51:49.358Z,99089.13
2022-12-31T14:55:59.469Z,99102.53
2022-12-31T15:00:22.433Z,99108.47
2022-12-31T15:04:32.769Z,99122.63
2022-12-31T15:08:52.884Z,99135.97
2022-12-31T15:13:05.936Z,99146.91
2022-12-31T15:17:21.572Z,99149.00
2022-12-31T15:21:37.557Z,99147.66
2022-12-31T15:25:48.987Z,99162.91
2022-12-31T15:29:51.584Z,99172.81
2022-12-31T15:33:57.697Z,99179.56
2022-12-31T15:38:01.945Z,99182.59
2022-12-31T15:42:37.917Z,99178.97
2022-12-31T15:46:43.474Z,99176.19
2022-12-31T15:50:48.400Z,99162.91
2022-12-31T15:54:52.517Z,99181.94
2022-12-31T15:59:00.468Z,99194.72
2022-12-31T16:03:03.406Z,99189.44
2022-12-31T16:07:06.495Z,99183.09
2022-12-31T16:11:10.813Z,99184.72
2022-12-31T16:15:23.397Z,99195.00
2022-12-31T16:19:31.497Z,99190.72
2022-12-31T16:23:38.784Z,99194.38
2022-12-31T16:27:44.594Z,99190.22
2022-12-31T16:31:49.974Z,99184.88
2022-12-31T16:35:56.324Z,99180.91
2022-12-31T16:40:18.293Z,99187.56
2022-12-31T16:44:28.206Z,99183.38
2022-12-31T16:48:32.049Z,99186.31
2022-12-31T16:52:39.581Z,99190.81
2022-12-31T16:56:43.583Z,99181.09
2022-12-31T17:00:47.696Z,99191.50
2022-12-31T17:04:55.989Z,99193.28
2022-12-31T17:09:13.847Z,99183.03
2022-12-31T17:13:27.975Z,99196.50
2022-12-31T17:17:35.866Z,99197.38
2022-12-31T17:21:49.574Z,99196.16
2022-12-31T17:25:59.848Z,99199.63
2022-12-31T17:30:21.254Z,99201.44
2022-12-31T17:34:30.176Z,99200.69
2022-12-31T17:38:37.039Z,99213.63
2022-12-31T17:42:40.663Z,99207.03
2022-12-31T17:46:43.345Z,99203.19
2022-12-31T17:50:48.715Z,99206.41
2022-12-31T17:54:52.667Z,99198.47
2022-12-31T17:58:55.573Z,99204.16
2022-12-31T18:02:58.336Z,99211.19
2022-12-31T18:07:00.981Z,99214.63
2022-12-31T18:11:05.162Z,99208.19
2022-12-31T18:15:09.307Z,99197.75
2022-12-31T18:19:37.680Z,99204.03
2022-12-31T18:23:39.760Z,99204.84
2022-12-31T18:27:43.633Z,99202.38
2022-12-31T18:31:48.829Z,99194.19
2022-12-31T18:36:08.928Z,99200.78
2022-12-31T18:40:13.716Z,99205.63
2022-12-31T18:44:18.650Z,99212.81
2022-12-31T18:48:21.277Z,99210.41
2022-12-31T18:52:25.035Z,99203.44
2022-12-31T18:56:27.932Z,99194.88
2022-12-31T19:00:32.093Z,99200.94
2022-12-31T19:04:35.115Z,99192.91
2022-12-31T19:08:37.734Z,99202.94
2022-12-31T19:12:40.333Z,99202.84
2022-12-31T19:16:44.223Z,99192.63
2022-12-31T19:20:46.897Z,99194.09
2022-12-31T19:24:49.419Z,99201.31
2022-12-31T19:28:52.119Z,99202.84
2022-12-31T19:32:56.252Z,99207.06
2022-12-31T19:36:58.786Z,99206.28
2022-12-31T19:41:02.758Z,99192.94
2022-12-31T19:45:06.316Z,99185.94
2022-12-31T19:49:12.021Z,99188.56
2022-12-31T19:53:16.965Z,99183.41
2022-12-31T19:57:19.471Z,99180.63
2022-12-31T20:01:24.385Z,99175.22
2022-12-31T20:05:28.859Z,99185.63
2022-12-31T20:09:31.352Z,99207.06
2022-12-31T20:13:35.243Z,99204.81
2022-12-31T20:17:38.379Z,99215.69
2022-12-31T20:21:44.451Z,99219.22
2022-12-31T20:25:57.543Z,99203.56
2022-12-31T20:30:00.111Z,99213.47
2022-12-31T20:34:02.637Z,99196.91
2022-12-31T20:38:06.484Z,99211.72
2022-12-31T20:42:09.124Z,99206.13
2022-12-31T20:46:15.742Z,99210.59
2022-12-31T20:50:18.839Z,99223.13
2022-12-31T20:54:22.839Z,99223.38
2022-12-31T20:58:25.370Z,99217.50
2022-12-31T21:02:41.061Z,99221.00
2022-12-31T21:06:44.378Z,99233.97
2022-12-31T21:10:50.545Z,99232.66
2022-12-31T21:14:53.155Z,99236.03
2022-12-31T21:18:56.093Z,99256.94
2022-12-31T21:22:58.622Z,99245.00
2022-12-31T21:27:02.522Z,99267.59
2022-12-31T21:31:07.420Z,99261.00
2022-12-31T21:39:32.857Z,99263.44
2022-12-31T21:43:36.703Z,99267.41
2022-12-31T21:47:56.934Z,99262.22
2022-12-31T21:52:17.028Z,99270.00
2022-12-31T21:56:21.152Z,99274.16
